Terminal Aerodrome Forecast
Issued by NWS St Louis, MO

Home | Current Version | Previous Version | Text Only | Print | Product List | Glossary On
Versions: 1 2 3 4 5 6 7 8 9 10 11 12 13 14 15 16 17 18 19 20 21 22 23 24 25 26 27 28 29 30 31 32
000
FTUS43 KLSX 280114 AAA
TAFCOU
TAF AMD
KCOU 280114Z 2801/2824 16010KT P6SM SCT025 OVC050
      TEMPO 2801/2802 5SM -SHRA BKN025
     FM280300 16011KT P6SM BKN040
     FM280900 17009KT P6SM BKN020
     FM281300 18009KT P6SM BKN070=

USA.gov is the U.S. government's official web portal to all federal, state and local government web resources and services.